createdAt,value
2018-06-05T00:03:04.687Z,85.80
2018-06-05T00:08:07.310Z,86.40
2018-06-05T00:13:09.970Z,87.30
2018-06-05T00:18:12.529Z,87.70
2018-06-05T00:23:15.162Z,88.80
2018-06-05T00:28:17.754Z,89.60
2018-06-05T00:33:20.477Z,89.40
2018-06-05T00:38:23.090Z,89.70
2018-06-05T00:43:25.671Z,90.20
2018-06-05T00:48:28.251Z,90.50
2018-06-05T00:53:31.061Z,90.50
2018-06-05T00:58:33.778Z,90.20
2018-06-05T01:03:36.374Z,90.20
2018-06-05T01:08:39.063Z,90.50
2018-06-05T01:13:41.662Z,89.90
2018-06-05T01:18:44.302Z,90.00
2018-06-05T01:23:46.895Z,89.80
2018-06-05T01:28:49.505Z,90.30
2018-06-05T01:33:52.091Z,90.90
2018-06-05T01:38:54.712Z,91.10
2018-06-05T01:43:57.358Z,91.00
2018-06-05T01:48:59.990Z,90.90
2018-06-05T01:54:02.587Z,91.10
2018-06-05T01:59:05.255Z,91.00
2018-06-05T02:04:08.071Z,90.90
2018-06-05T02:09:10.686Z,91.00
2018-06-05T02:14:13.283Z,91.30
2018-06-05T02:19:15.888Z,91.20
2018-06-05T02:24:18.570Z,91.40
2018-06-05T02:29:21.187Z,92.00
2018-06-05T02:34:23.952Z,92.50
2018-06-05T02:39:26.560Z,93.10
2018-06-05T02:44:29.185Z,93.10
2018-06-05T02:54:34.351Z,93.70
2018-06-05T02:59:37.043Z,93.60
2018-06-05T03:04:40.328Z,93.90
2018-06-05T03:09:42.936Z,93.80
2018-06-05T03:14:45.542Z,93.90
2018-06-05T03:19:48.151Z,93.70
2018-06-05T03:24:50.822Z,93.40
2018-06-05T03:29:53.447Z,93.30
2018-06-05T03:34:56.038Z,93.50
2018-06-05T03:39:58.742Z,93.60
2018-06-05T03:45:01.355Z,93.40
2018-06-05T03:50:04.019Z,93.40
2018-06-05T03:55:06.654Z,93.40
2018-06-05T04:00:09.294Z,93.00
2018-06-05T04:05:12.050Z,92.50
2018-06-05T04:10:14.664Z,92.30
2018-06-05T04:15:18.086Z,92.20
2018-06-05T04:20:20.750Z,91.80
2018-06-05T04:25:23.352Z,91.70
2018-06-05T04:30:25.954Z,91.50
2018-06-05T04:35:28.577Z,90.90
2018-06-05T04:40:31.332Z,90.10
2018-06-05T04:45:33.927Z,89.70
2018-06-05T04:50:36.530Z,86.50
2018-06-05T05:00:42.178Z,85.40
2018-06-05T05:05:44.805Z,83.90
2018-06-05T05:10:47.409Z,82.80
2018-06-05T05:15:50.088Z,82.20
2018-06-05T05:20:52.735Z,80.20
2018-06-05T05:25:55.401Z,81.40
2018-06-05T05:30:58.037Z,81.20
2018-06-05T05:36:00.724Z,81.80
2018-06-05T05:41:03.333Z,82.10
2018-06-05T05:46:05.975Z,81.60
2018-06-05T05:51:08.581Z,80.40
2018-06-05T05:56:11.389Z,80.50
2018-06-05T06:01:14.163Z,80.30
2018-06-05T06:06:16.788Z,78.50
2018-06-05T06:11:19.467Z,78.40
2018-06-05T06:16:22.223Z,75.60
2018-06-05T06:21:24.867Z,76.20
2018-06-05T06:26:27.486Z,75.00
2018-06-05T06:31:30.099Z,75.80
2018-06-05T06:36:32.758Z,74.50
2018-06-05T06:41:35.646Z,73.60
2018-06-05T06:46:38.263Z,72.40
2018-06-05T06:51:40.866Z,73.10
2018-06-05T06:56:43.583Z,71.20
2018-06-05T14:01:34.668Z,16.70
2018-06-05T14:06:38.201Z,15.80
2018-06-05T14:11:40.908Z,15.70
2018-06-05T14:16:43.536Z,15.00
2018-06-05T14:21:46.746Z,18.40
2018-06-05T14:26:50.057Z,17.50
2018-06-05T14:31:52.807Z,17.00
2018-06-05T14:36:55.398Z,16.40
2018-06-05T14:41:58.056Z,15.50
2018-06-05T14:47:00.681Z,16.30
2018-06-05T14:52:03.321Z,15.50
2018-06-05T14:57:06.183Z,15.10
2018-06-05T15:02:08.804Z,15.00
2018-06-05T15:07:12.029Z,15.30
2018-06-05T15:12:14.625Z,13.70
2018-06-05T15:17:17.287Z,15.20
2018-06-05T15:22:19.911Z,15.50
2018-06-05T15:27:22.563Z,14.50
2018-06-05T15:32:25.178Z,15.90
2018-06-05T15:42:30.419Z,23.00
2018-06-05T15:47:33.067Z,24.40
2018-06-05T15:52:35.687Z,23.70
2018-06-05T15:57:38.321Z,20.50
2018-06-05T16:02:40.995Z,20.70
2018-06-05T16:07:43.805Z,23.10
2018-06-05T16:12:46.422Z,25.20
2018-06-05T16:17:49.119Z,23.10
2018-06-05T16:22:51.737Z,21.30
2018-06-05T16:27:54.355Z,22.10
2018-06-05T16:32:56.942Z,24.10
2018-06-05T16:37:59.575Z,25.90
2018-06-05T16:43:02.252Z,27.90
2018-06-05T16:48:04.927Z,26.10
2018-06-05T16:53:07.590Z,22.90
2018-06-05T16:58:10.208Z,22.60
2018-06-05T17:03:12.839Z,23.00
2018-06-05T17:08:15.480Z,23.10
2018-06-05T17:13:18.085Z,24.60
2018-06-05T17:18:20.742Z,28.00
2018-06-05T17:23:23.343Z,31.00
2018-06-05T17:28:25.981Z,33.10
2018-06-05T17:33:28.654Z,35.40
2018-06-05T17:38:31.371Z,37.70
2018-06-05T17:43:35.175Z,38.30
2018-06-05T17:48:38.075Z,39.30
2018-06-05T17:53:40.703Z,38.10
2018-06-05T18:03:45.843Z,37.90
2018-06-05T18:08:48.484Z,38.90
2018-06-05T18:13:51.172Z,38.90
2018-06-05T18:18:54.003Z,40.10
2018-06-05T18:23:56.754Z,41.10
2018-06-05T18:28:59.393Z,41.90
2018-06-05T18:34:02.015Z,43.30
2018-06-05T18:39:06.991Z,44.40
2018-06-05T18:44:09.644Z,47.90
2018-06-05T18:49:12.340Z,51.40
2018-06-05T18:54:15.066Z,53.50
2018-06-05T18:59:19.047Z,54.70
2018-06-05T19:04:21.683Z,56.30
2018-06-05T19:09:24.317Z,56.70
2018-06-05T19:14:26.984Z,57.80
2018-06-05T19:19:29.668Z,58.90
2018-06-05T19:24:32.355Z,61.20
2018-06-05T19:29:35.150Z,61.80
2018-06-05T19:34:37.759Z,62.80
2018-06-05T19:39:40.425Z,64.10
2018-06-05T19:44:43.181Z,65.50
2018-06-05T19:49:45.828Z,67.20
2018-06-05T19:54:48.456Z,66.20
2018-06-05T19:59:51.120Z,67.30
2018-06-05T20:04:53.817Z,68.20
2018-06-05T20:09:56.475Z,69.60
2018-06-05T20:20:01.803Z,70.40
2018-06-05T20:25:04.435Z,70.60
2018-06-05T20:30:07.120Z,70.70
2018-06-05T20:35:09.738Z,71.60
2018-06-05T20:40:12.408Z,72.10
2018-06-05T20:45:15.004Z,72.90
2018-06-05T20:50:17.630Z,74.40
2018-06-05T20:55:20.242Z,75.00
2018-06-05T21:00:22.863Z,76.90
2018-06-05T21:05:25.511Z,75.90
2018-06-05T21:10:28.177Z,76.80
2018-06-05T21:15:30.811Z,77.50
2018-06-05T21:20:33.674Z,78.40
2018-06-05T21:25:36.311Z,78.00
2018-06-05T21:30:38.918Z,78.20
2018-06-05T21:35:41.608Z,79.00
2018-06-05T21:45:46.797Z,79.70
2018-06-05T21:50:49.417Z,80.90
2018-06-05T21:55:51.998Z,79.30
2018-06-05T22:00:54.605Z,79.20
2018-06-05T22:05:57.227Z,79.50
2018-06-05T22:10:59.950Z,79.50
2018-06-05T22:16:02.652Z,79.60
2018-06-05T22:26:07.862Z,80.80
2018-06-05T22:31:10.492Z,81.70
2018-06-05T22:36:13.646Z,81.60
2018-06-05T22:41:16.250Z,81.70
2018-06-05T22:46:18.863Z,82.30
2018-06-05T22:51:21.476Z,83.20
2018-06-05T22:56:24.046Z,83.90
2018-06-05T23:01:26.638Z,84.10
2018-06-05T23:06:29.275Z,85.60
2018-06-05T23:11:31.892Z,84.30
2018-06-05T23:16:34.480Z,84.20
2018-06-05T23:21:37.080Z,85.10
2018-06-05T23:26:39.689Z,85.10
2018-06-05T23:31:42.287Z,85.80
2018-06-05T23:36:45.008Z,85.20
2018-06-05T23:41:47.639Z,85.50
2018-06-05T23:46:50.253Z,85.80
2018-06-05T23:51:57.399Z,86.40
2018-06-05T23:57:00.014Z,86.40
